Time;durP1;ratioP1;P1;durP2;ratioP2;P2;SDS_P1;SDS_P2;PMS_P1;PMS_P2;Temp;Humidity;BMP_temperature;BMP_pressure;BME280_temperature;BME280_humidity;BME280_pressure;Samples;Min_cycle;Max_cycle;Signal;HPM_P1;HPM_P2
2021/12/13 00:01:24;;;;;;;;;34.25;28.00;;;;;12.48;72.03;102585.25;5038115;28;47185;-91
2021/12/13 00:03:57;;;;;;;;;30.00;27.75;;;;;12.46;72.16;102581.75;5049607;28;46325;-90
2021/12/13 00:06:28;;;;;;;;;31.00;29.50;;;;;12.46;72.16;102575.59;5033001;28;46044;-90
2021/12/13 00:08:57;;;;;;;;;36.00;28.75;;;;;12.48;72.21;102569.44;5030954;28;45405;-90
2021/12/13 00:11:31;;;;;;;;;32.75;26.50;;;;;12.51;72.22;102565.88;5039935;28;47066;-91
2021/12/13 00:14:06;;;;;;;;;30.50;26.75;;;;;12.51;72.21;102560.59;5033853;28;46127;-90
2021/12/13 00:16:35;;;;;;;;;23.00;22.75;;;;;12.53;71.82;102560.56;5040655;28;45543;-90
2021/12/13 00:19:06;;;;;;;;;31.25;24.25;;;;;12.54;71.96;102565.84;5044453;28;45911;-90
2021/12/13 00:21:38;;;;;;;;;33.00;29.25;;;;;12.52;72.06;102559.69;5042806;28;45415;-90
2021/12/13 00:24:11;;;;;;;;;28.25;23.50;;;;;12.52;71.84;102554.41;5033446;28;45372;-89
2021/12/13 00:26:44;;;;;;;;;29.25;27.50;;;;;12.53;72.00;102556.19;5041417;28;45237;-90
2021/12/13 00:29:41;;;;;;;;;28.50;25.75;;;;;12.56;72.08;102553.50;5036472;28;47562;-90
2021/12/13 00:32:17;;;;;;;;;27.75;25.75;;;;;12.53;71.71;102553.53;5037767;28;47315;-84
2021/12/13 00:34:49;;;;;;;;;24.00;23.00;;;;;12.53;71.95;102553.53;5038872;28;45861;-85
2021/12/13 00:37:42;;;;;;;;;25.50;24.25;;;;;12.50;72.01;102543.03;5036341;28;45420;-91
2021/12/13 00:40:25;;;;;;;;;27.75;23.50;;;;;12.51;71.95;102547.41;5035342;28;46206;-90
2021/12/13 00:43:00;;;;;;;;;26.75;22.75;;;;;12.42;71.63;102539.63;5035536;28;45385;-91
2021/12/13 00:45:29;;;;;;;;;28.00;22.25;;;;;12.40;71.70;102530.81;5042524;28;45741;-86
2021/12/13 00:47:54;;;;;;;;;28.25;26.25;;;;;12.41;72.38;102533.47;5041324;28;45439;-86
2021/12/13 00:50:44;;;;;;;;;29.00;24.50;;;;;12.40;72.08;102534.34;5039238;28;45345;-86
2021/12/13 00:53:11;;;;;;;;;26.25;21.50;;;;;12.40;71.91;102534.34;5042135;28;45367;-86
2021/12/13 00:55:37;;;;;;;;;32.00;27.25;;;;;12.42;71.90;102542.25;5042254;28;46039;-88
2021/12/13 00:58:14;;;;;;;;;27.00;24.00;;;;;12.45;72.17;102543.09;5041546;28;45456;-87
2021/12/13 01:00:46;;;;;;;;;29.25;25.00;;;;;12.45;72.08;102548.34;5039060;28;47147;-92
2021/12/13 01:03:13;;;;;;;;;30.75;25.75;;;;;12.46;72.13;102543.97;5040825;28;46957;-93
2021/12/13 01:06:16;;;;;;;;;24.25;22.00;;;;;12.47;72.00;102545.72;5037884;28;45321;-93
2021/12/13 01:09:20;;;;;;;;;30.00;25.00;;;;;12.42;72.05;102550.16;5035405;28;45394;-93
2021/12/13 01:11:51;;;;;;;;;26.25;24.00;;;;;12.40;71.98;102550.16;5039059;28;45479;-92
2021/12/13 01:14:40;;;;;;;;;31.25;27.50;;;;;12.44;71.95;102551.03;5031437;28;47204;-92
2021/12/13 01:17:26;;;;;;;;;26.50;22.50;;;;;12.41;72.29;102545.78;5037042;28;45707;-94
2021/12/13 01:20:05;;;;;;;;;23.50;21.00;;;;;12.43;72.31;102549.25;5033198;28;45496;-95
2021/12/13 01:23:04;;;;;;;;;26.50;22.75;;;;;12.46;72.09;102547.47;5029083;28;46093;-94
2021/12/13 01:25:48;;;;;;;;;27.00;24.25;;;;;12.47;71.91;102546.56;5041983;28;45307;-94
2021/12/13 01:28:20;;;;;;;;;30.00;26.25;;;;;12.45;72.11;102544.84;5037602;28;45239;-94
2021/12/13 01:31:00;;;;;;;;;29.00;24.50;;;;;12.41;71.94;102540.50;5036375;28;45365;-95
2021/12/13 01:33:28;;;;;;;;;28.75;25.00;;;;;12.38;72.01;102539.66;5020866;28;47255;-91
2021/12/13 01:35:57;;;;;;;;;28.75;24.00;;;;;12.41;72.21;102544.00;5035343;28;45556;-93
2021/12/13 01:38:32;;;;;;;;;30.75;22.50;;;;;12.40;72.18;102552.81;5022309;28;45231;-93
2021/12/13 01:41:00;;;;;;;;;22.00;21.00;;;;;12.40;72.02;102549.28;5032593;28;45210;-93
2021/12/13 01:43:30;;;;;;;;;25.25;24.50;;;;;12.40;72.06;102546.66;5057207;28;45883;-91
2021/12/13 01:45:58;;;;;;;;;21.25;19.25;;;;;12.39;72.32;102551.06;5041836;28;45407;-91
2021/12/13 01:48:29;;;;;;;;;24.50;22.75;;;;;12.41;72.25;102546.66;5037787;28;45250;-92
2021/12/13 01:51:05;;;;;;;;;24.25;22.75;;;;;12.40;72.19;102550.16;5041336;28;45396;-92
2021/12/13 01:53:38;;;;;;;;;27.75;25.00;;;;;12.42;72.23;102552.81;5039483;28;46560;-91
2021/12/13 01:56:22;;;;;;;;;29.00;22.50;;;;;12.42;71.96;102552.81;5028175;28;47284;-90
2021/12/13 01:58:49;;;;;;;;;28.25;23.75;;;;;12.34;72.24;102547.63;5027379;28;45405;-87
2021/12/13 02:01:22;;;;;;;;;25.75;21.25;;;;;12.26;72.12;102552.97;5041394;28;45343;-88
2021/12/13 02:04:00;;;;;;;;;27.75;21.25;;;;;12.23;72.28;102547.72;5038600;28;45394;-80
2021/12/13 02:06:32;;;;;;;;;25.50;21.25;;;;;12.26;72.49;102548.56;5039817;28;46450;-83
2021/12/13 02:09:03;;;;;;;;;27.50;24.00;;;;;12.25;72.22;102546.81;5037502;28;45806;-85
2021/12/13 02:11:31;;;;;;;;;26.50;21.25;;;;;12.30;72.58;102551.19;5039806;28;45285;-83
2021/12/13 02:14:19;;;;;;;;;26.75;24.00;;;;;12.27;72.64;102550.31;5040824;28;45457;-82
2021/12/13 02:16:59;;;;;;;;;27.25;22.75;;;;;12.31;72.41;102556.44;5036661;28;45470;-84
2021/12/13 02:20:00;;;;;;;;;21.75;18.50;;;;;12.32;72.42;102552.88;5029697;28;45763;-84
2021/12/13 02:22:30;;;;;;;;;26.75;22.50;;;;;12.33;72.24;102559.91;5032334;28;45426;-84
2021/12/13 02:24:59;;;;;;;;;29.00;21.75;;;;;12.34;72.32;102564.31;5039032;28;45653;-84
2021/12/13 02:27:29;;;;;;;;;25.75;22.00;;;;;12.35;72.26;102562.53;5035184;28;46443;-84
2021/12/13 02:29:57;;;;;;;;;25.25;22.50;;;;;12.31;72.53;102561.72;5033556;28;45448;-84
2021/12/13 02:32:27;;;;;;;;;28.50;24.00;;;;;12.31;72.39;102561.72;5040549;28;45346;-84
2021/12/13 02:34:57;;;;;;;;;25.50;21.75;;;;;12.32;72.37;102563.44;5037490;28;45395;-83
2021/12/13 02:37:26;;;;;;;;;24.00;19.75;;;;;12.33;72.43;102559.03;5040485;28;46319;-83
2021/12/13 02:39:58;;;;;;;;;23.25;18.75;;;;;12.31;71.99;102552.91;5040507;28;45283;-83
2021/12/13 02:42:27;;;;;;;;;25.00;23.00;;;;;12.30;72.45;102559.94;5032660;28;45343;-83
2021/12/13 02:45:03;;;;;;;;;22.50;21.25;;;;;12.29;72.30;102557.34;5034934;28;45402;-83
2021/12/13 02:47:37;;;;;;;;;29.75;21.25;;;;;12.30;72.31;102554.66;5040230;28;45388;-89
2021/12/13 02:50:21;;;;;;;;;24.25;20.00;;;;;12.26;72.37;102553.84;5038865;28;45295;-89
2021/12/13 02:52:47;;;;;;;;;25.25;22.00;;;;;12.26;72.40;102551.22;5039299;28;45267;-84
2021/12/13 02:55:21;;;;;;;;;23.50;22.00;;;;;12.32;72.46;102549.41;5025275;28;45239;-88
2021/12/13 02:57:50;;;;;;;;;26.25;22.25;;;;;12.30;72.34;102554.66;5044236;28;47266;-89
2021/12/13 03:00:26;;;;;;;;;25.00;21.25;;;;;12.29;72.39;102550.31;5039597;28;45239;-89
2021/12/13 03:02:55;;;;;;;;;29.75;20.25;;;;;12.30;72.24;102549.41;5032145;28;45469;-88
2021/12/13 03:05:29;;;;;;;;;27.25;22.50;;;;;12.33;72.36;102545.84;5024929;28;45434;-86
2021/12/13 03:08:00;;;;;;;;;23.75;22.25;;;;;12.28;72.01;102540.63;5038687;28;48116;-86
2021/12/13 03:10:43;;;;;;;;;24.75;21.00;;;;;12.28;71.95;102545.91;5039894;28;45713;-85
2021/12/13 03:13:09;;;;;;;;;22.75;20.00;;;;;12.29;72.36;102545.03;5037631;28;45185;-86
2021/12/13 03:15:35;;;;;;;;;25.50;21.25;;;;;12.27;71.86;102545.03;5026814;28;45439;-88
2021/12/13 03:18:16;;;;;;;;;24.50;23.00;;;;;12.29;72.31;102550.31;5039580;28;46375;-88
2021/12/13 03:20:42;;;;;;;;;29.75;25.25;;;;;12.30;72.34;102549.41;5038546;28;45833;-88
2021/12/13 03:23:22;;;;;;;;;26.67;24.33;;;;;12.33;72.30;102544.09;5037280;28;45413;-84
2021/12/13 03:26:07;;;;;;;;;27.50;21.50;;;;;12.31;72.25;102545.88;5039735;28;45426;-84
2021/12/13 03:28:45;;;;;;;;;28.50;23.25;;;;;12.28;72.23;102543.28;5039844;28;45493;-84
2021/12/13 03:31:14;;;;;;;;;31.50;24.00;;;;;12.27;72.27;102538.91;5039694;28;45351;-84
2021/12/13 03:34:00;;;;;;;;;27.50;23.00;;;;;12.31;72.30;102537.97;5025552;28;45415;-88
2021/12/13 03:37:02;;;;;;;;;23.75;19.75;;;;;12.30;72.13;102538.84;5039679;28;45203;-88
2021/12/13 03:39:50;;;;;;;;;25.75;22.25;;;;;12.26;71.97;102531.88;5039046;28;45653;-86
2021/12/13 03:42:23;;;;;;;;;21.25;18.25;;;;;12.29;72.24;102541.53;5029182;28;46214;-87
2021/12/13 03:44:53;;;;;;;;;21.75;19.00;;;;;12.28;72.14;102530.09;5030425;28;45350;-87
2021/12/13 03:47:25;;;;;;;;;24.25;21.25;;;;;12.30;71.97;102533.56;5024666;28;45426;-86
2021/12/13 03:49:57;;;;;;;;;30.00;22.00;;;;;12.30;72.15;102530.94;5039487;28;45493;-86
2021/12/13 03:52:30;;;;;;;;;24.50;21.25;;;;;12.29;71.88;102531.84;5036833;28;45271;-85
2021/12/13 03:54:59;;;;;;;;;27.50;20.75;;;;;12.27;71.87;102518.66;5039760;28;45639;-82
2021/12/13 03:57:31;;;;;;;;;25.25;20.50;;;;;12.27;71.95;102515.19;5039312;28;45433;-83
2021/12/13 03:59:58;;;;;;;;;24.25;18.75;;;;;12.28;71.96;102519.53;5038536;28;45778;-84
2021/12/13 04:02:30;;;;;;;;;24.75;19.75;;;;;12.27;72.23;102517.81;5035881;28;45287;-85
2021/12/13 04:05:00;;;;;;;;;24.50;20.00;;;;;12.27;72.08;102513.41;5030157;28;45437;-85
2021/12/13 04:07:33;;;;;;;;;22.75;19.00;;;;;12.30;71.88;102516.91;5039118;28;45521;-86
2021/12/13 04:10:04;;;;;;;;;23.25;19.50;;;;;12.28;72.09;102519.53;5029631;28;46367;-86
2021/12/13 04:12:41;;;;;;;;;22.00;20.00;;;;;12.28;72.03;102522.19;5037965;28;45767;-85
2021/12/13 04:15:27;;;;;;;;;25.25;19.25;;;;;12.27;71.89;102523.94;5039443;28;45232;-84
2021/12/13 04:18:13;;;;;;;;;21.75;20.25;;;;;12.26;72.05;102521.34;5039051;28;45295;-84
2021/12/13 04:20:41;;;;;;;;;25.25;24.25;;;;;12.27;72.04;102517.81;5034997;28;48306;-84
2021/12/13 04:23:16;;;;;;;;;21.75;19.25;;;;;12.26;72.11;102519.56;5019150;28;45749;-84
2021/12/13 04:25:45;;;;;;;;;26.25;21.75;;;;;12.28;72.03;102519.53;5037054;28;45446;-84
2021/12/13 04:28:17;;;;;;;;;23.25;20.00;;;;;12.26;72.09;102516.94;5039063;28;45445;-84
2021/12/13 04:30:49;;;;;;;;;22.25;19.75;;;;;12.26;71.67;102518.69;5026855;28;46417;-84
2021/12/13 04:33:30;;;;;;;;;21.50;18.25;;;;;12.27;71.80;102520.47;5050647;28;45318;-85
2021/12/13 04:36:04;;;;;;;;;19.00;16.00;;;;;12.26;71.73;102527.50;5037775;28;45478;-86
2021/12/13 04:38:55;;;;;;;;;19.75;18.00;;;;;12.26;71.80;102529.25;5038958;28;45306;-84
2021/12/13 04:41:27;;;;;;;;;19.50;18.25;;;;;12.26;72.15;102526.59;5032672;28;45438;-83
2021/12/13 04:44:27;;;;;;;;;21.25;19.50;;;;;12.24;71.83;102528.38;5027500;28;45251;-80
2021/12/13 04:46:55;;;;;;;;;21.00;16.75;;;;;12.24;72.00;102529.28;5024283;28;45417;-88
2021/12/13 04:49:25;;;;;;;;;20.00;19.75;;;;;12.21;71.68;102534.56;5037248;28;45468;-87
2021/12/13 04:51:56;;;;;;;;;19.00;17.00;;;;;12.22;71.95;102531.03;5047588;28;47271;-86
2021/12/13 04:54:25;;;;;;;;;18.25;17.00;;;;;12.21;71.87;102531.06;5035932;28;45670;-88
2021/12/13 04:56:52;;;;;;;;;20.50;17.00;;;;;12.22;71.84;102538.09;5041123;28;45238;-87
2021/12/13 04:59:19;;;;;;;;;21.25;18.25;;;;;12.20;72.17;102538.09;5041897;28;45347;-87
2021/12/13 05:01:48;;;;;;;;;22.00;18.50;;;;;12.20;71.68;102535.44;5042030;28;45378;-83
2021/12/13 05:04:14;;;;;;;;;21.75;19.25;;;;;12.20;71.84;102532.81;5039371;28;45870;-83
2021/12/13 05:06:41;;;;;;;;;19.00;17.00;;;;;12.21;71.70;102533.69;5022678;28;45540;-83
2021/12/13 05:09:11;;;;;;;;;21.25;18.00;;;;;12.21;71.88;102542.47;5040689;28;45570;-83
2021/12/13 05:11:53;;;;;;;;;22.25;18.00;;;;;12.21;71.91;102544.22;5057299;28;46273;-82
2021/12/13 05:14:42;;;;;;;;;19.25;18.25;;;;;12.20;71.78;102545.13;5039319;28;45521;-82
2021/12/13 05:17:13;;;;;;;;;19.25;16.50;;;;;12.20;71.53;102548.63;5033115;28;45288;-88
2021/12/13 05:19:47;;;;;;;;;22.00;19.00;;;;;12.20;71.97;102548.63;5040328;28;46380;-89
2021/12/13 05:22:15;;;;;;;;;20.75;19.00;;;;;12.20;71.81;102542.50;5056904;28;48277;-88
2021/12/13 05:24:46;;;;;;;;;22.25;17.75;;;;;12.19;72.15;102546.91;5036234;28;45760;-88
2021/12/13 05:27:15;;;;;;;;;22.50;19.75;;;;;12.18;71.65;102554.81;5041466;28;45534;-88
2021/12/13 05:29:52;;;;;;;;;24.00;20.25;;;;;12.15;71.73;102553.94;5040302;28;47070;-88
2021/12/13 05:32:24;;;;;;;;;25.00;20.25;;;;;12.16;71.76;102552.19;5040055;28;47100;-87
2021/12/13 05:35:04;;;;;;;;;25.75;20.25;;;;;12.15;71.74;102553.94;5027789;28;45921;-87
2021/12/13 05:37:45;;;;;;;;;22.50;20.00;;;;;12.15;71.83;102551.31;5027708;28;45468;-88
2021/12/13 05:40:21;;;;;;;;;19.75;18.00;;;;;12.18;71.39;102549.53;5040799;28;45322;-85
2021/12/13 05:42:53;;;;;;;;;21.25;19.50;;;;;12.15;71.38;102550.44;5039334;28;46503;-88
2021/12/13 05:45:29;;;;;;;;;21.75;19.25;;;;;12.13;71.66;102550.47;5028412;28;45388;-89
2021/12/13 05:48:03;;;;;;;;;22.00;19.50;;;;;12.13;71.43;102555.72;5041211;28;45303;-88
2021/12/13 05:50:38;;;;;;;;;19.75;17.25;;;;;12.13;71.33;102554.84;5029900;28;45288;-95
2021/12/13 05:53:13;;;;;;;;;20.75;19.00;;;;;12.11;71.47;102551.34;5041779;28;45419;-88
2021/12/13 05:55:55;;;;;;;;;19.00;17.75;;;;;12.10;71.20;102547.81;5027860;28;45497;-85
2021/12/13 05:58:36;;;;;;;;;17.25;16.75;;;;;12.10;71.62;102550.44;5041219;28;45218;-86
2021/12/13 06:01:11;;;;;;;;;21.00;16.00;;;;;12.07;71.28;102547.88;5036262;28;45532;-86
2021/12/13 06:03:38;;;;;;;;;24.25;18.75;;;;;12.06;71.19;102543.47;5029948;28;45447;-85
2021/12/13 06:06:10;;;;;;;;;18.00;17.00;;;;;12.05;71.31;102547.00;5040069;28;45688;-81
2021/12/13 06:08:44;;;;;;;;;16.75;15.00;;;;;12.07;71.05;102555.78;5039715;28;45386;-79
2021/12/13 06:11:20;;;;;;;;;20.25;16.75;;;;;12.05;71.14;102557.53;5041025;28;45286;-81
2021/12/13 06:13:46;;;;;;;;;16.75;16.50;;;;;12.06;71.20;102555.78;5040702;28;46227;-80
2021/12/13 06:16:23;;;;;;;;;17.25;15.00;;;;;12.06;71.30;102556.66;5039484;28;45714;-80
2021/12/13 06:18:57;;;;;;;;;18.50;17.00;;;;;12.06;71.14;102558.41;5027457;28;45393;-80
2021/12/13 06:21:47;;;;;;;;;18.50;14.00;;;;;12.04;71.23;102558.44;5028673;28;45459;-80
2021/12/13 06:24:13;;;;;;;;;20.50;19.00;;;;;12.03;71.26;102554.91;5040628;28;46153;-81
2021/12/13 06:26:39;;;;;;;;;16.25;13.50;;;;;12.05;71.13;102560.16;5039706;28;45425;-81
2021/12/13 06:29:08;;;;;;;;;18.50;16.25;;;;;12.03;70.88;102559.31;5027347;28;45469;-86
2021/12/13 06:31:43;;;;;;;;;16.00;15.75;;;;;12.02;71.01;102552.31;5040892;28;45315;-80
2021/12/13 06:34:14;;;;;;;;;16.00;14.25;;;;;12.01;70.91;102555.81;5039905;28;45522;-86
2021/12/13 06:36:45;;;;;;;;;16.25;15.25;;;;;12.01;70.96;102555.81;5027496;28;45375;-81
2021/12/13 06:39:25;;;;;;;;;19.75;16.50;;;;;12.00;71.11;102554.94;5039975;28;45406;-81
2021/12/13 06:41:58;;;;;;;;;16.00;14.50;;;;;12.01;71.19;102561.09;5032975;28;45391;-82
2021/12/13 06:44:27;;;;;;;;;17.00;15.00;;;;;12.01;71.19;102558.47;5033127;28;45427;-81
2021/12/13 06:46:53;;;;;;;;;16.25;15.25;;;;;12.01;71.01;102563.72;5030978;28;45640;-82
2021/12/13 06:49:26;;;;;;;;;17.50;16.75;;;;;11.98;70.93;102563.75;5032754;28;45782;-81
2021/12/13 06:52:20;;;;;;;;;20.25;14.25;;;;;11.99;70.93;102566.38;5034779;28;45468;-81
2021/12/13 06:54:58;;;;;;;;;13.25;13.25;;;;;11.96;70.80;102565.53;5039688;28;45322;-80
2021/12/13 06:57:31;;;;;;;;;19.75;18.50;;;;;11.98;70.88;102571.66;5040277;28;45442;-80
2021/12/13 07:00:03;;;;;;;;;16.50;15.25;;;;;11.96;70.78;102569.03;5028134;28;45256;-79
2021/12/13 07:02:35;;;;;;;;;13.50;12.00;;;;;11.96;71.08;102561.13;5024210;28;47148;-80
2021/12/13 07:05:33;;;;;;;;;15.00;13.50;;;;;11.94;71.03;102565.56;5028734;28;45421;-80
2021/12/13 07:08:09;;;;;;;;;16.50;13.00;;;;;11.93;70.96;102571.69;5025373;28;45373;-80
2021/12/13 07:10:56;;;;;;;;;15.00;11.50;;;;;11.91;71.23;102565.56;5037662;28;45516;-80
2021/12/13 07:13:43;;;;;;;;;12.50;11.25;;;;;11.93;71.34;102562.03;5037749;28;45485;-80
2021/12/13 07:16:15;;;;;;;;;11.25;10.75;;;;;11.93;71.22;102569.06;5038103;28;46342;-80
2021/12/13 07:18:44;;;;;;;;;11.00;11.00;;;;;11.94;71.07;102568.19;5026907;28;45480;-80
2021/12/13 07:21:13;;;;;;;;;11.25;10.25;;;;;11.94;71.24;102565.56;5037145;28;45421;-79
2021/12/13 07:23:50;;;;;;;;;8.25;8.25;;;;;11.93;71.11;102564.69;5026504;28;45584;-79
2021/12/13 07:26:30;;;;;;;;;14.00;10.00;;;;;11.91;71.06;102557.66;5039437;28;46755;-79
2021/12/13 07:28:57;;;;;;;;;9.75;8.25;;;;;11.92;71.08;102555.03;5039728;28;45545;-79
2021/12/13 07:31:22;;;;;;;;;10.75;9.50;;;;;11.92;71.25;102549.78;5039638;28;45460;-79
2021/12/13 07:33:48;;;;;;;;;13.00;12.00;;;;;11.90;71.27;102548.88;5019850;28;45437;-79
2021/12/13 07:36:19;;;;;;;;;13.25;12.25;;;;;11.89;71.13;102549.78;5033732;28;46239;-79
2021/12/13 07:38:48;;;;;;;;;16.75;15.00;;;;;11.88;70.98;102561.22;5039830;28;45434;-79
2021/12/13 07:41:14;;;;;;;;;14.25;13.50;;;;;11.88;70.93;102557.69;5036315;28;45382;-79
2021/12/13 07:43:45;;;;;;;;;16.50;14.75;;;;;11.88;71.01;102568.22;5024717;28;45314;-78
2021/12/13 07:46:19;;;;;;;;;12.50;12.00;;;;;11.87;70.92;102567.38;5036824;28;46304;-78
2021/12/13 07:48:45;;;;;;;;;13.25;13.25;;;;;11.89;71.26;102575.25;5039191;28;45167;-79
2021/12/13 07:51:16;;;;;;;;;15.75;14.00;;;;;11.88;70.98;102568.22;5034588;28;45232;-79
2021/12/13 07:53:43;;;;;;;;;14.75;12.25;;;;;11.87;70.94;102570.03;5031197;28;45439;-79
2021/12/13 07:56:11;;;;;;;;;13.25;13.25;;;;;11.90;71.14;102587.56;5028323;28;45498;-79
2021/12/13 07:58:44;;;;;;;;;18.75;17.25;;;;;11.88;71.00;102570.88;5022026;28;45748;-79
2021/12/13 08:01:24;;;;;;;;;16.25;14.00;;;;;11.87;71.21;102562.13;5039308;28;45274;-78
2021/12/13 08:04:12;;;;;;;;;15.50;15.00;;;;;11.90;70.95;102566.47;5039025;28;45323;-78
2021/12/13 08:06:46;;;;;;;;;15.50;14.75;;;;;11.90;70.94;102562.06;5028970;28;45431;-78
2021/12/13 08:09:15;;;;;;;;;14.50;13.00;;;;;11.91;71.33;102569.09;5028661;28;45524;-78
2021/12/13 08:12:12;;;;;;;;;17.50;16.00;;;;;11.91;71.14;102569.09;5041955;28;45586;-78
2021/12/13 08:14:39;;;;;;;;;20.25;16.50;;;;;11.90;71.35;102561.22;5032251;28;46156;-78
2021/12/13 08:17:12;;;;;;;;;17.50;13.00;;;;;11.91;71.06;102568.22;5023069;28;46526;-78
2021/12/13 08:19:39;;;;;;;;;14.50;13.25;;;;;11.90;70.94;102572.59;5037998;28;45827;-79
2021/12/13 08:22:15;;;;;;;;;18.25;13.75;;;;;11.91;71.12;102570.84;5039259;28;45346;-79
2021/12/13 08:24:45;;;;;;;;;17.75;15.50;;;;;11.91;70.77;102574.38;5030724;28;45349;-79
2021/12/13 08:27:22;;;;;;;;;20.50;16.25;;;;;11.92;71.18;102585.78;5036956;28;45365;-79
2021/12/13 08:29:47;;;;;;;;;13.50;13.50;;;;;11.92;71.01;102570.84;5034850;28;45733;-79
2021/12/13 08:32:19;;;;;;;;;15.75;15.75;;;;;11.96;70.97;102578.72;5042491;28;45365;-79
2021/12/13 08:34:47;;;;;;;;;15.75;14.50;;;;;11.99;71.07;102586.59;5034030;28;45406;-79
2021/12/13 08:37:21;;;;;;;;;17.75;15.00;;;;;11.99;70.96;102581.31;5036729;28;46244;-79
2021/12/13 08:39:56;;;;;;;;;14.00;14.00;;;;;11.96;71.20;102582.22;5026433;28;45658;-79
2021/12/13 08:42:25;;;;;;;;;15.25;14.25;;;;;11.96;71.20;102579.59;5028358;28;45460;-79
2021/12/13 08:45:03;;;;;;;;;16.00;15.00;;;;;11.97;70.98;102583.09;5024781;28;45421;-79
2021/12/13 08:47:51;;;;;;;;;16.00;14.00;;;;;11.99;71.08;102583.97;5039576;28;46080;-79
2021/12/13 08:50:24;;;;;;;;;17.25;13.25;;;;;11.97;71.04;102589.25;5042220;28;45307;-79
2021/12/13 08:52:57;;;;;;;;;9.75;9.75;;;;;11.96;70.78;102594.53;5023772;28;45176;-79
2021/12/13 08:55:39;;;;;;;;;11.50;9.75;;;;;11.98;70.78;102592.75;5035369;28;45224;-79
2021/12/13 08:58:07;;;;;;;;;8.75;8.75;;;;;11.99;70.82;102589.22;5040747;28;46547;-78
2021/12/13 09:00:53;;;;;;;;;10.00;8.50;;;;;11.98;70.69;102584.84;5029206;28;45647;-78
2021/12/13 09:03:30;;;;;;;;;11.75;7.75;;;;;12.00;70.51;102588.34;5040968;28;45560;-78
2021/12/13 09:06:07;;;;;;;;;10.25;10.00;;;;;11.99;70.60;102586.59;5042084;28;45591;-79
2021/12/13 09:08:55;;;;;;;;;12.75;10.75;;;;;11.99;70.48;102599.78;5038675;28;46380;-83
2021/12/13 09:11:33;;;;;;;;;8.50;8.50;;;;;12.01;70.56;102605.91;5034711;28;45460;-83
2021/12/13 09:14:07;;;;;;;;;9.75;9.00;;;;;12.00;70.35;102610.28;5042045;28;45424;-84
2021/12/13 09:16:55;;;;;;;;;7.00;7.00;;;;;12.04;70.16;102601.47;5036299;28;45161;-84
2021/12/13 09:19:28;;;;;;;;;7.00;7.00;;;;;12.07;70.13;102602.34;5053533;28;47247;-83
2021/12/13 09:22:04;;;;;;;;;8.75;7.50;;;;;12.13;70.09;102597.91;5035976;28;45595;-83
2021/12/13 09:24:35;;;;;;;;;9.00;7.25;;;;;12.22;69.70;102606.63;5042320;28;45219;-83
2021/12/13 09:27:15;;;;;;;;;10.00;7.25;;;;;12.31;69.65;102609.16;5038464;28;45462;-82
2021/12/13 09:29:57;;;;;;;;;7.25;7.00;;;;;12.38;69.17;102602.94;5041317;28;45313;-82
2021/12/13 09:32:31;;;;;;;;;7.25;6.25;;;;;12.44;68.59;102611.69;5036670;28;45412;-82
2021/12/13 09:35:16;;;;;;;;;7.50;7.00;;;;;12.48;68.70;102610.75;5024210;28;45423;-84
2021/12/13 09:37:42;;;;;;;;;7.50;5.75;;;;;12.48;68.30;102618.66;5028712;28;45661;-84
2021/12/13 09:40:09;;;;;;;;;6.75;5.00;;;;;12.44;67.92;102625.75;5032387;28;45490;-84
2021/12/13 09:42:57;;;;;;;;;6.25;6.25;;;;;12.54;67.52;102621.25;5028036;28;45498;-84
2021/12/13 09:45:33;;;;;;;;;6.00;2.75;;;;;12.51;66.85;102615.13;5029045;28;45478;-84
2021/12/13 09:48:14;;;;;;;;;4.50;4.00;;;;;12.48;67.32;102610.75;5028463;28;45376;-84
2021/12/13 09:50:41;;;;;;;;;4.25;4.25;;;;;12.49;67.31;102607.22;5036244;28;47579;-84
2021/12/13 09:53:08;;;;;;;;;5.00;4.00;;;;;12.51;67.65;102612.47;5041039;28;45608;-84
2021/12/13 09:55:48;;;;;;;;;5.00;3.75;;;;;12.53;67.44;102615.97;5037545;28;45682;-83
2021/12/13 09:58:16;;;;;;;;;6.00;3.50;;;;;12.52;66.84;102606.31;5036303;28;45220;-83
2021/12/13 10:00:45;;;;;;;;;6.00;6.00;;;;;12.51;67.58;102616.00;5041367;28;45504;-84
2021/12/13 10:03:17;;;;;;;;;8.25;5.50;;;;;12.54;66.51;102613.34;5040498;28;45661;-84
2021/12/13 10:05:46;;;;;;;;;4.00;3.50;;;;;12.53;66.95;102606.28;5028101;28;45398;-84
2021/12/13 10:08:17;;;;;;;;;2.50;2.00;;;;;12.53;66.90;102611.56;5035410;28;45505;-84
2021/12/13 10:10:53;;;;;;;;;1.00;1.00;;;;;12.51;66.45;102621.28;5025517;28;46438;-84
2021/12/13 10:13:25;;;;;;;;;2.50;2.25;;;;;12.48;66.13;102626.56;5026880;28;45658;-84
2021/12/13 10:15:55;;;;;;;;;3.00;2.00;;;;;12.45;66.52;102613.41;5027588;28;45233;-84
2021/12/13 10:18:28;;;;;;;;;3.00;3.00;;;;;12.42;66.33;102614.31;5040706;28;45448;-83
2021/12/13 10:21:03;;;;;;;;;3.50;2.50;;;;;12.43;66.48;102615.19;5038507;28;46950;-84
2021/12/13 10:23:37;;;;;;;;;2.50;2.00;;;;;12.41;66.05;102603.78;5040890;28;45697;-84
2021/12/13 10:26:06;;;;;;;;;2.50;2.00;;;;;12.38;66.18;102607.34;5039040;28;45405;-84
2021/12/13 10:28:52;;;;;;;;;1.00;1.00;;;;;12.37;66.31;102600.31;5028511;28;45480;-84
2021/12/13 10:31:32;;;;;;;;;1.75;1.75;;;;;12.33;66.10;102602.09;5035821;28;46747;-84
2021/12/13 10:34:03;;;;;;;;;3.50;2.00;;;;;12.26;65.93;102597.78;5040180;28;45429;-84
2021/12/13 10:36:30;;;;;;;;;2.25;2.00;;;;;12.20;66.10;102592.59;5040732;28;45242;-84
2021/12/13 10:39:01;;;;;;;;;2.50;2.50;;;;;12.11;66.11;102597.03;5038033;28;45286;-84
2021/12/13 10:41:35;;;;;;;;;2.75;2.75;;;;;12.08;66.63;102599.69;5036643;28;46390;-83
2021/12/13 10:44:05;;;;;;;;;2.00;2.00;;;;;12.09;66.62;102593.53;5030705;28;45456;-84
2021/12/13 10:46:38;;;;;;;;;2.25;2.25;;;;;12.10;67.27;102599.69;5040569;28;45302;-83
2021/12/13 10:49:17;;;;;;;;;3.00;3.00;;;;;12.09;66.80;102597.94;5035028;28;45438;-84
2021/12/13 10:51:54;;;;;;;;;5.50;4.00;;;;;12.12;66.94;102593.47;5027101;28;45431;-84
2021/12/13 10:54:23;;;;;;;;;4.50;4.00;;;;;12.14;66.89;102594.41;5040553;28;45710;-84
2021/12/13 10:56:54;;;;;;;;;4.00;3.25;;;;;12.18;66.57;102595.22;5038227;28;45230;-84
2021/12/13 10:59:25;;;;;;;;;4.00;3.00;;;;;12.15;66.66;102598.75;5038397;28;45222;-85
2021/12/13 11:01:55;;;;;;;;;4.50;4.50;;;;;12.18;66.71;102592.59;5039898;28;45559;-84
2021/12/13 11:04:27;;;;;;;;;7.25;5.50;;;;;12.18;65.92;102591.72;5040247;28;45536;-84
2021/12/13 11:06:54;;;;;;;;;3.00;3.00;;;;;12.18;66.98;102595.22;5038197;28;45540;-84
2021/12/13 11:09:23;;;;;;;;;13.75;9.50;;;;;12.24;66.84;102592.53;5032242;28;46067;-86
2021/12/13 11:11:54;;;;;;;;;8.00;7.75;;;;;12.25;66.27;102593.41;5038694;28;47312;-86
2021/12/13 11:14:22;;;;;;;;;6.00;4.75;;;;;12.24;65.96;102594.31;5024683;28;45676;-84
2021/12/13 11:16:57;;;;;;;;;6.00;5.75;;;;;12.21;66.08;102591.69;5030101;28;45264;-85
2021/12/13 11:19:26;;;;;;;;;4.25;4.25;;;;;12.15;65.83;102590.84;5054954;28;45528;-85
2021/12/13 11:22:01;;;;;;;;;5.00;3.50;;;;;12.07;65.93;102592.69;5039481;28;47254;-86
2021/12/13 11:24:30;;;;;;;;;4.00;3.25;;;;;12.02;67.51;102592.72;5038800;28;45323;-86
2021/12/13 11:27:02;;;;;;;;;3.75;3.00;;;;;12.02;66.54;102594.47;5032232;28;45462;-87
2021/12/13 11:29:28;;;;;;;;;3.50;3.00;;;;;11.97;66.40;102599.78;5032158;28;45814;-86
2021/12/13 11:31:54;;;;;;;;;1.75;1.75;;;;;11.93;66.10;102603.31;5038370;28;45592;-85
2021/12/13 11:34:41;;;;;;;;;3.75;3.50;;;;;11.87;66.70;102600.75;5029994;28;45308;-86
2021/12/13 11:37:44;;;;;;;;;3.25;3.25;;;;;11.85;66.46;102598.16;5026959;28;45381;-87
2021/12/13 11:40:31;;;;;;;;;1.50;1.50;;;;;11.78;66.51;102588.50;5038464;28;45331;-86
2021/12/13 11:43:07;;;;;;;;;4.25;3.75;;;;;11.79;67.26;102588.53;5036712;28;46297;-86
2021/12/13 11:45:55;;;;;;;;;3.25;2.00;;;;;11.89;67.13;102586.69;5031730;28;45773;-86